Time;durP1;ratioP1;P1;durP2;ratioP2;P2;SDS_P1;SDS_P2;PMS_P1;PMS_P2;Temp;Humidity;BMP_temperature;BMP_pressure;BME280_temperature;BME280_humidity;BME280_pressure;Samples;Min_cycle;Max_cycle;Signal;HPM_P1;HPM_P2
2022/03/25 00:00:25;;;;;;;29.37;27.57;;;6.80;99.90;;;;;;4445769;32;20593;-59
2022/03/25 00:02:56;;;;;;;31.40;29.53;;;6.80;99.90;;;;;;4438708;32;20147;-58
2022/03/25 00:05:23;;;;;;;33.00;30.73;;;6.80;99.90;;;;;;4437895;32;20630;-58
2022/03/25 00:07:50;;;;;;;29.53;27.43;;;6.70;99.90;;;;;;4438924;32;20210;-58
2022/03/25 00:10:20;;;;;;;30.13;28.17;;;6.70;99.90;;;;;;4446912;32;20147;-59
2022/03/25 00:12:47;;;;;;;30.70;28.70;;;6.70;99.90;;;;;;4452368;32;20234;-59
2022/03/25 00:15:15;;;;;;;32.30;30.30;;;6.70;99.90;;;;;;4440721;32;20487;-58
2022/03/25 00:17:42;;;;;;;30.13;28.23;;;6.60;99.90;;;;;;4447065;32;20565;-59
2022/03/25 00:20:12;;;;;;;30.53;28.47;;;6.60;99.90;;;;;;4450723;32;20147;-59
2022/03/25 00:22:39;;;;;;;30.17;28.33;;;6.60;99.90;;;;;;4452953;32;20163;-59
2022/03/25 00:25:08;;;;;;;31.97;29.97;;;6.60;99.90;;;;;;4450888;32;20246;-59
2022/03/25 00:27:35;;;;;;;33.63;31.47;;;6.60;99.90;;;;;;4449193;32;20148;-59
2022/03/25 00:30:02;;;;;;;31.77;29.27;;;6.50;99.90;;;;;;4441847;32;20142;-58
2022/03/25 00:32:30;;;;;;;29.07;27.23;;;6.60;99.90;;;;;;4449712;32;20219;-58
2022/03/25 00:34:57;;;;;;;28.57;26.37;;;6.50;99.90;;;;;;4441285;32;20161;-59
2022/03/25 00:37:25;;;;;;;30.30;28.40;;;6.50;99.90;;;;;;4441390;32;20155;-59
2022/03/25 00:39:52;;;;;;;30.40;28.30;;;6.50;99.90;;;;;;4441593;32;20161;-59
2022/03/25 00:42:19;;;;;;;32.90;30.70;;;6.50;99.90;;;;;;4438134;32;20140;-59
2022/03/25 00:44:47;;;;;;;28.77;26.57;;;6.40;99.90;;;;;;4448231;32;20440;-59
2022/03/25 00:47:14;;;;;;;32.23;30.23;;;6.40;99.90;;;;;;4442453;32;20151;-59
2022/03/25 00:49:42;;;;;;;31.13;28.73;;;6.40;99.90;;;;;;4440668;32;20200;-58
2022/03/25 00:52:09;;;;;;;30.70;28.73;;;6.30;99.90;;;;;;4442788;32;20132;-59
2022/03/25 00:54:36;;;;;;;35.70;33.50;;;6.40;99.90;;;;;;4449379;32;20222;-59
2022/03/25 00:57:03;;;;;;;34.07;31.53;;;6.30;99.90;;;;;;4443243;32;20149;-58
2022/03/25 00:59:30;;;;;;;32.30;30.20;;;6.30;99.90;;;;;;4449096;32;20524;-59
2022/03/25 01:01:58;;;;;;;30.07;28.03;;;6.30;99.90;;;;;;4438799;32;20157;-59
2022/03/25 01:04:25;;;;;;;30.20;28.30;;;6.20;99.90;;;;;;4436491;32;20155;-59
2022/03/25 01:06:53;;;;;;;30.33;28.23;;;6.30;99.90;;;;;;4442420;32;20148;-58
2022/03/25 01:09:20;;;;;;;33.00;30.50;;;6.20;99.90;;;;;;4452255;32;20154;-58
2022/03/25 01:11:50;;;;;;;31.87;29.73;;;6.20;99.90;;;;;;4443941;32;20627;-58
2022/03/25 01:14:17;;;;;;;33.00;30.57;;;6.20;99.90;;;;;;4437533;32;20144;-59
2022/03/25 01:16:44;;;;;;;30.43;28.07;;;6.10;99.90;;;;;;4437652;32;20638;-59
2022/03/25 01:19:11;;;;;;;31.37;29.23;;;6.10;99.90;;;;;;4437558;32;20249;-59
2022/03/25 01:21:39;;;;;;;31.27;29.03;;;6.10;99.90;;;;;;4444632;32;20575;-59
2022/03/25 01:24:08;;;;;;;31.47;29.30;;;6.10;99.90;;;;;;4451632;32;20182;-59
2022/03/25 01:26:35;;;;;;;31.70;29.50;;;6.10;99.90;;;;;;4451185;32;20165;-59
2022/03/25 01:29:04;;;;;;;32.70;30.20;;;6.10;99.90;;;;;;4450882;32;20229;-59
2022/03/25 01:31:32;;;;;;;31.40;29.10;;;6.00;99.90;;;;;;4441715;32;20186;-58
2022/03/25 01:33:59;;;;;;;31.67;29.47;;;6.00;99.90;;;;;;4445459;32;20628;-58
2022/03/25 01:36:26;;;;;;;34.83;32.43;;;6.00;99.90;;;;;;4449091;32;20161;-58
2022/03/25 01:38:53;;;;;;;32.23;29.90;;;6.00;99.90;;;;;;4450739;32;20203;-59
2022/03/25 01:41:25;;;;;;;33.00;30.73;;;6.00;99.90;;;;;;4447691;32;20531;-59
2022/03/25 01:43:54;;;;;;;30.93;28.57;;;5.90;99.90;;;;;;4436837;32;20234;-58
2022/03/25 01:46:22;;;;;;;31.10;28.90;;;5.90;99.90;;;;;;4442135;32;20190;-59
2022/03/25 01:48:57;;;;;;;29.83;27.63;;;5.90;99.90;;;;;;4447459;32;20172;-59
2022/03/25 01:51:28;;;;;;;31.90;29.30;;;5.90;99.90;;;;;;4443267;32;20250;-58
2022/03/25 01:53:55;;;;;;;28.77;26.57;;;5.80;99.90;;;;;;4436974;32;20561;-58
2022/03/25 01:56:24;;;;;;;28.90;26.90;;;5.80;99.90;;;;;;4436154;32;20555;-58
2022/03/25 01:58:51;;;;;;;31.53;29.17;;;5.70;99.90;;;;;;4445680;32;20201;-58
2022/03/25 02:01:18;;;;;;;32.37;29.83;;;5.70;99.90;;;;;;4441105;32;20235;-58
2022/03/25 02:03:46;;;;;;;31.87;29.47;;;5.70;99.90;;;;;;4451874;32;20153;-57
2022/03/25 02:06:13;;;;;;;30.23;27.87;;;5.70;99.90;;;;;;4447541;32;20163;-58
2022/03/25 02:08:40;;;;;;;30.53;28.23;;;5.70;99.90;;;;;;4446527;32;20154;-58
2022/03/25 02:11:09;;;;;;;30.00;27.47;;;5.60;99.90;;;;;;4440894;32;20551;-57
2022/03/25 02:13:37;;;;;;;31.30;28.83;;;5.60;99.90;;;;;;4450206;32;20147;-58
2022/03/25 02:16:05;;;;;;;32.90;30.00;;;5.60;99.90;;;;;;4441998;32;20148;-58
2022/03/25 02:18:31;;;;;;;31.17;28.87;;;5.60;99.90;;;;;;4436833;32;20493;-58
2022/03/25 02:20:59;;;;;;;34.67;31.93;;;5.60;99.90;;;;;;4436842;32;20219;-58
2022/03/25 02:23:31;;;;;;;35.33;31.97;;;5.50;99.90;;;;;;4444443;32;20497;-58
2022/03/25 02:25:59;;;;;;;32.23;29.67;;;5.50;99.90;;;;;;4451230;32;20159;-58
2022/03/25 02:28:26;;;;;;;32.77;30.07;;;5.50;99.90;;;;;;4452349;32;20154;-58
2022/03/25 02:30:53;;;;;;;29.27;26.97;;;5.40;99.90;;;;;;4451354;32;20167;-57
2022/03/25 02:33:20;;;;;;;29.47;26.97;;;5.40;99.90;;;;;;4447844;32;20448;-58
2022/03/25 02:35:49;;;;;;;32.73;30.00;;;5.40;99.90;;;;;;4449163;32;20222;-58
2022/03/25 02:38:21;;;;;;;34.30;31.50;;;5.40;99.90;;;;;;4450370;32;20177;-58
2022/03/25 02:40:50;;;;;;;33.53;30.77;;;5.40;99.90;;;;;;4440621;32;20214;-58
2022/03/25 02:43:17;;;;;;;34.93;31.93;;;5.40;99.90;;;;;;4438768;32;20181;-57
2022/03/25 02:45:46;;;;;;;34.37;31.33;;;5.40;99.90;;;;;;4436559;32;20154;-58
2022/03/25 02:48:13;;;;;;;35.80;32.87;;;5.30;99.90;;;;;;4435695;32;20169;-57
2022/03/25 02:50:40;;;;;;;38.70;35.90;;;5.30;99.90;;;;;;4436317;32;20159;-58
2022/03/25 02:53:07;;;;;;;40.17;37.03;;;5.30;99.90;;;;;;4439926;32;20173;-58
2022/03/25 02:55:34;;;;;;;34.97;32.07;;;5.30;99.90;;;;;;4447239;32;20177;-56
2022/03/25 02:58:03;;;;;;;37.87;35.03;;;5.30;99.90;;;;;;4369819;32;1652310;-58
2022/03/25 03:00:30;;;;;;;38.67;35.60;;;5.30;99.90;;;;;;4421628;32;20441;-58
2022/03/25 03:03:00;;;;;;;40.00;36.33;;;5.20;99.90;;;;;;4426328;32;20200;-57
2022/03/25 03:05:27;;;;;;;40.13;36.77;;;5.20;99.90;;;;;;4432679;32;20645;-58
2022/03/25 03:07:54;;;;;;;37.77;34.47;;;5.20;99.90;;;;;;4427311;32;20147;-58
2022/03/25 03:10:23;;;;;;;40.77;37.60;;;5.20;99.90;;;;;;4420402;32;20197;-57
2022/03/25 03:12:50;;;;;;;38.77;35.70;;;5.10;99.90;;;;;;4425693;32;20174;-57
2022/03/25 03:15:18;;;;;;;36.83;33.87;;;5.00;99.90;;;;;;4423856;32;20182;-57
2022/03/25 03:17:45;;;;;;;37.83;35.03;;;5.10;99.90;;;;;;4428620;32;20159;-57
2022/03/25 03:20:13;;;;;;;39.53;36.10;;;5.00;99.90;;;;;;4436324;32;20277;-57
2022/03/25 03:22:40;;;;;;;36.57;34.13;;;4.90;99.90;;;;;;4431612;32;20172;-56
2022/03/25 03:25:08;;;;;;;36.17;33.53;;;4.90;99.90;;;;;;4433716;32;20218;-57
2022/03/25 03:27:34;;;;;;;37.40;34.40;;;4.80;99.90;;;;;;4434416;32;20277;-57
2022/03/25 03:30:01;;;;;;;36.27;33.67;;;4.80;99.90;;;;;;4435681;32;20194;-57
2022/03/25 03:32:29;;;;;;;40.17;36.67;;;4.70;99.90;;;;;;4435122;32;20214;-57
2022/03/25 03:34:56;;;;;;;37.70;34.67;;;4.70;99.90;;;;;;4424523;32;20154;-57
2022/03/25 03:37:24;;;;;;;38.10;35.10;;;4.70;99.90;;;;;;4423790;32;20138;-57
2022/03/25 03:39:55;;;;;;;42.13;39.10;;;4.70;99.90;;;;;;4426548;32;20231;-57
2022/03/25 03:42:22;;;;;;;40.57;36.77;;;4.70;99.90;;;;;;4435985;32;20216;-57
2022/03/25 03:44:49;;;;;;;41.23;37.83;;;4.60;99.90;;;;;;4433421;32;20155;-57
2022/03/25 03:47:15;;;;;;;42.77;39.57;;;4.60;99.90;;;;;;4424837;32;20181;-57
2022/03/25 03:49:44;;;;;;;46.63;42.60;;;4.60;99.90;;;;;;4437461;32;20158;-57
2022/03/25 03:52:10;;;;;;;45.77;42.17;;;4.50;99.90;;;;;;4437431;32;20147;-56
2022/03/25 03:54:38;;;;;;;44.63;41.13;;;4.50;99.90;;;;;;4426228;32;20219;-56
2022/03/25 03:57:08;;;;;;;45.33;41.87;;;4.50;99.90;;;;;;4423454;32;20165;-57
2022/03/25 03:59:35;;;;;;;47.80;44.30;;;4.40;99.90;;;;;;4422791;32;20144;-57
2022/03/25 04:02:06;;;;;;;49.10;45.33;;;4.30;99.90;;;;;;4433931;32;20220;-57
2022/03/25 04:04:32;;;;;;;57.53;52.40;;;4.30;99.90;;;;;;4436145;32;20166;-57
2022/03/25 04:07:01;;;;;;;43.23;39.83;;;4.30;99.90;;;;;;4434184;32;20170;-55
2022/03/25 04:09:30;;;;;;;46.03;42.67;;;4.30;99.90;;;;;;4433802;32;20159;-56
2022/03/25 04:11:59;;;;;;;48.23;44.47;;;4.30;99.90;;;;;;4433581;32;20163;-58
2022/03/25 04:14:30;;;;;;;48.73;45.17;;;4.30;99.90;;;;;;4427655;32;20193;-57
2022/03/25 04:16:57;;;;;;;45.80;42.13;;;4.30;99.90;;;;;;4434005;32;20163;-57
2022/03/25 04:19:23;;;;;;;46.43;42.73;;;4.30;99.90;;;;;;4437442;32;20151;-57
2022/03/25 04:21:50;;;;;;;44.97;41.40;;;4.20;99.90;;;;;;4425617;32;20175;-57
2022/03/25 04:24:18;;;;;;;40.80;37.33;;;4.10;99.90;;;;;;4425878;32;20159;-59
2022/03/25 04:26:45;;;;;;;44.33;40.67;;;4.10;99.90;;;;;;4437913;32;20162;-57
2022/03/25 04:29:12;;;;;;;44.23;40.17;;;4.10;99.90;;;;;;4428367;32;20218;-57
2022/03/25 04:31:45;;;;;;;41.73;38.17;;;4.00;99.90;;;;;;4422447;32;20277;-54
2022/03/25 04:34:12;;;;;;;44.30;40.43;;;4.00;99.90;;;;;;4424163;32;20222;-58
2022/03/25 04:36:41;;;;;;;41.00;37.27;;;4.00;99.90;;;;;;4437496;32;20178;-56
2022/03/25 04:39:08;;;;;;;41.93;38.43;;;4.00;99.90;;;;;;4424265;32;20498;-57
2022/03/25 04:41:36;;;;;;;42.00;38.40;;;4.00;99.90;;;;;;4436260;32;20166;-57
2022/03/25 04:44:03;;;;;;;38.50;35.37;;;4.00;99.90;;;;;;4435843;32;20185;-56
2022/03/25 04:46:30;;;;;;;39.17;35.33;;;3.90;99.90;;;;;;4434026;32;20511;-57
2022/03/25 04:49:00;;;;;;;37.23;34.13;;;3.90;99.90;;;;;;4433836;32;20718;-59
2022/03/25 04:51:27;;;;;;;35.90;32.80;;;3.90;99.90;;;;;;4422514;32;20204;-57
2022/03/25 04:53:53;;;;;;;38.87;35.60;;;3.90;99.90;;;;;;4431434;32;20147;-57
2022/03/25 04:56:20;;;;;;;40.60;36.67;;;3.80;99.90;;;;;;4434666;32;20482;-54
2022/03/25 04:58:48;;;;;;;35.77;32.37;;;3.80;99.90;;;;;;4437344;32;20136;-56
2022/03/25 05:01:15;;;;;;;35.30;32.43;;;3.70;99.90;;;;;;4436413;32;20155;-57
2022/03/25 05:03:42;;;;;;;37.03;33.53;;;3.70;99.90;;;;;;4435831;32;20227;-55
2022/03/25 05:06:09;;;;;;;38.80;35.23;;;3.70;99.90;;;;;;4433479;32;20147;-56
2022/03/25 05:08:36;;;;;;;41.37;37.50;;;3.70;99.90;;;;;;4421767;32;20220;-55
2022/03/25 05:11:02;;;;;;;40.50;36.83;;;3.80;99.90;;;;;;4429404;32;20181;-57
2022/03/25 05:13:29;;;;;;;41.63;37.83;;;3.70;99.90;;;;;;4436448;32;20165;-56
2022/03/25 05:15:57;;;;;;;40.33;36.87;;;3.70;99.90;;;;;;4433108;32;20221;-55
2022/03/25 05:18:24;;;;;;;39.57;35.73;;;3.70;99.90;;;;;;4434260;32;20228;-55
2022/03/25 05:20:51;;;;;;;40.90;36.93;;;3.70;99.90;;;;;;4429197;32;20147;-56
2022/03/25 05:23:20;;;;;;;36.13;33.00;;;3.70;99.90;;;;;;4427518;32;20189;-56
2022/03/25 05:25:51;;;;;;;41.83;37.87;;;3.70;99.90;;;;;;4433291;32;20150;-57
2022/03/25 05:28:19;;;;;;;40.13;36.43;;;3.60;99.90;;;;;;4436515;32;20592;-56
2022/03/25 05:30:46;;;;;;;41.97;38.00;;;3.60;99.90;;;;;;4427795;32;20181;-57
2022/03/25 05:33:14;;;;;;;37.63;33.77;;;3.60;99.90;;;;;;4423259;32;20182;-56
2022/03/25 05:35:41;;;;;;;36.47;32.90;;;3.60;99.90;;;;;;4428085;32;20145;-55
2022/03/25 05:38:09;;;;;;;37.93;34.27;;;3.50;99.90;;;;;;4430794;32;20522;-57
2022/03/25 05:40:36;;;;;;;38.77;34.53;;;3.60;99.90;;;;;;4422721;32;20151;-57
2022/03/25 05:43:03;;;;;;;42.57;35.03;;;3.60;99.90;;;;;;4421960;32;20273;-55
2022/03/25 05:45:30;;;;;;;40.77;36.67;;;3.60;99.90;;;;;;4426494;32;20146;-56
2022/03/25 05:47:57;;;;;;;43.77;39.30;;;3.70;99.90;;;;;;4434175;32;20143;-57
2022/03/25 05:50:25;;;;;;;41.40;37.20;;;3.70;99.90;;;;;;4435732;32;20538;-55
2022/03/25 05:52:52;;;;;;;39.77;36.00;;;3.70;99.90;;;;;;4431570;32;20191;-55
2022/03/25 05:55:19;;;;;;;41.50;37.73;;;3.70;99.90;;;;;;4421707;32;20567;-57
2022/03/25 05:57:46;;;;;;;41.13;36.93;;;3.80;99.90;;;;;;4428891;32;20188;-58
2022/03/25 06:00:15;;;;;;;41.63;37.43;;;3.90;99.90;;;;;;4426098;32;20522;-59
2022/03/25 06:02:42;;;;;;;45.17;41.27;;;4.00;99.90;;;;;;4427552;32;20152;-57
2022/03/25 06:05:10;;;;;;;51.07;46.33;;;4.00;99.90;;;;;;4429319;32;20159;-57
2022/03/25 06:07:39;;;;;;;51.80;47.63;;;4.10;99.90;;;;;;4433806;32;20170;-55
2022/03/25 06:10:08;;;;;;;54.03;49.27;;;4.10;99.90;;;;;;4432587;32;20171;-55
2022/03/25 06:12:35;;;;;;;54.87;50.17;;;4.20;99.90;;;;;;4427427;32;20139;-53
2022/03/25 06:15:02;;;;;;;58.53;53.93;;;4.20;99.90;;;;;;4425157;32;20181;-57
2022/03/25 06:17:32;;;;;;;55.63;51.50;;;4.30;99.90;;;;;;4423231;32;20209;-58
2022/03/25 06:19:59;;;;;;;59.90;54.83;;;4.40;99.90;;;;;;4424986;32;20167;-56
2022/03/25 06:22:27;;;;;;;59.20;54.20;;;4.50;99.90;;;;;;4416049;32;20254;-57
2022/03/25 06:24:55;;;;;;;57.57;53.03;;;4.60;99.90;;;;;;4433081;32;20159;-56
2022/03/25 06:27:22;;;;;;;58.00;53.57;;;4.70;99.90;;;;;;4429523;32;20724;-56
2022/03/25 06:29:48;;;;;;;63.73;59.30;;;4.80;99.90;;;;;;4423988;32;20147;-56
2022/03/25 06:32:15;;;;;;;60.03;55.47;;;4.90;99.90;;;;;;4426270;32;20304;-57
2022/03/25 06:34:42;;;;;;;58.60;54.23;;;5.00;99.90;;;;;;4422597;32;20182;-54
2022/03/25 06:37:09;;;;;;;63.53;59.07;;;5.10;99.90;;;;;;4422434;32;20503;-57
2022/03/25 06:39:40;;;;;;;62.10;57.33;;;5.20;99.90;;;;;;4426023;32;20230;-55
2022/03/25 06:42:08;;;;;;;65.10;60.27;;;5.20;99.90;;;;;;4427891;32;20467;-58
2022/03/25 06:44:35;;;;;;;58.73;54.37;;;5.40;99.90;;;;;;4429868;32;20150;-56
2022/03/25 06:47:02;;;;;;;61.47;56.83;;;5.50;99.90;;;;;;4427968;32;20168;-58
2022/03/25 06:49:31;;;;;;;61.07;56.87;;;5.60;99.90;;;;;;4424761;32;20211;-56
2022/03/25 06:51:58;;;;;;;61.07;56.87;;;5.70;99.90;;;;;;4425008;32;20202;-57
2022/03/25 06:54:25;;;;;;;59.27;54.60;;;5.80;99.90;;;;;;4425489;32;20167;-57
2022/03/25 06:56:53;;;;;;;59.20;55.10;;;5.90;99.90;;;;;;4426935;32;20688;-59
2022/03/25 06:59:23;;;;;;;60.20;55.70;;;6.10;99.90;;;;;;4426917;32;20231;-56
2022/03/25 07:01:50;;;;;;;68.90;63.90;;;6.20;99.90;;;;;;4428520;32;20169;-57
2022/03/25 07:04:17;;;;;;;68.07;62.83;;;6.40;99.90;;;;;;4428185;32;20165;-56
2022/03/25 07:06:49;;;;;;;64.97;60.37;;;6.50;99.90;;;;;;4422681;32;20166;-56
2022/03/25 07:09:19;;;;;;;68.03;62.77;;;6.60;99.90;;;;;;4426413;32;20208;-55
2022/03/25 07:11:47;;;;;;;64.23;59.17;;;6.70;99.90;;;;;;4425185;32;20598;-58
2022/03/25 07:14:13;;;;;;;62.63;57.67;;;6.90;99.90;;;;;;4426498;32;20147;-57
2022/03/25 07:16:44;;;;;;;60.67;55.90;;;6.90;99.90;;;;;;4430135;32;20143;-57
2022/03/25 07:19:11;;;;;;;60.77;56.10;;;7.10;99.90;;;;;;4426097;32;20223;-57
2022/03/25 07:21:38;;;;;;;61.83;56.93;;;7.20;99.90;;;;;;4425542;32;20219;-57
2022/03/25 07:24:06;;;;;;;61.63;56.77;;;7.40;99.90;;;;;;4430612;32;20140;-58
2022/03/25 07:26:33;;;;;;;62.43;57.43;;;7.50;99.90;;;;;;4435089;32;20227;-54
2022/03/25 07:29:05;;;;;;;51.93;47.67;;;7.70;99.90;;;;;;4430558;32;20147;-58
2022/03/25 07:31:32;;;;;;;55.47;50.60;;;7.80;99.90;;;;;;4439644;32;20519;-56
2022/03/25 07:34:00;;;;;;;55.93;51.03;;;7.90;99.90;;;;;;4440035;32;20148;-55
2022/03/25 07:36:27;;;;;;;54.80;50.17;;;8.10;99.90;;;;;;4438434;32;20225;-54
2022/03/25 07:38:54;;;;;;;55.83;50.90;;;8.10;99.90;;;;;;4436700;32;20514;-54
2022/03/25 07:41:21;;;;;;;52.73;48.40;;;8.20;99.90;;;;;;4423660;32;20194;-57
2022/03/25 07:43:53;;;;;;;55.37;50.87;;;8.30;99.90;;;;;;4423697;32;20566;-57
2022/03/25 07:46:20;;;;;;;58.67;54.23;;;8.60;99.90;;;;;;4422936;32;20144;-57
2022/03/25 07:48:47;;;;;;;60.77;56.20;;;8.70;99.90;;;;;;4423097;32;20182;-58
2022/03/25 07:51:15;;;;;;;59.63;54.80;;;8.80;99.90;;;;;;4437699;32;20155;-55
2022/03/25 07:53:45;;;;;;;55.33;50.97;;;9.00;99.90;;;;;;4439045;32;20165;-55
2022/03/25 07:56:12;;;;;;;53.17;49.00;;;9.20;99.90;;;;;;4437981;32;20151;-57
2022/03/25 07:58:39;;;;;;;58.47;53.90;;;9.30;99.90;;;;;;4438964;32;20492;-53
2022/03/25 08:01:06;;;;;;;56.43;51.90;;;9.50;99.90;;;;;;4436956;32;20144;-55
2022/03/25 08:03:33;;;;;;;62.93;57.90;;;9.60;99.90;;;;;;4438433;32;20176;-57
2022/03/25 08:05:59;;;;;;;65.57;60.83;;;9.70;99.90;;;;;;4438337;32;20154;-54
2022/03/25 08:08:30;;;;;;;62.70;58.10;;;9.90;99.90;;;;;;4437562;32;20193;-54
2022/03/25 08:10:58;;;;;;;69.33;64.03;;;10.10;99.90;;;;;;4433980;32;20559;-57
2022/03/25 08:13:28;;;;;;;65.73;60.90;;;10.20;99.90;;;;;;4438639;32;20130;-55
2022/03/25 08:15:55;;;;;;;63.73;58.57;;;10.40;99.90;;;;;;4437873;32;20147;-55
2022/03/25 08:18:22;;;;;;;63.47;57.97;;;10.60;99.90;;;;;;4438581;32;20158;-56
2022/03/25 08:20:53;;;;;;;65.53;60.83;;;10.70;99.90;;;;;;4438025;32;20467;-56
2022/03/25 08:28:52;;;;;;;62.50;58.00;;;11.40;99.90;;;;;;4438911;32;20510;-57
2022/03/25 08:31:19;;;;;;;61.90;57.77;;;11.60;99.90;;;;;;4439771;32;20135;-57
2022/03/25 08:33:46;;;;;;;67.93;63.20;;;11.90;99.90;;;;;;4438155;32;20158;-56
2022/03/25 08:36:13;;;;;;;64.83;60.60;;;12.10;99.90;;;;;;4438143;32;20218;-54
2022/03/25 08:38:42;;;;;;;74.13;69.33;;;12.40;99.60;;;;;;4437464;32;20234;-56
2022/03/25 08:41:10;;;;;;;70.27;65.53;;;12.90;99.30;;;;;;4437617;32;20206;-56
2022/03/25 08:43:40;;;;;;;72.17;67.40;;;14.00;98.00;;;;;;4438871;32;20154;-58
2022/03/25 08:46:10;;;;;;;77.50;72.73;;;17.00;93.90;;;;;;4439468;32;20139;-56
2022/03/25 08:48:57;;;;;;;79.93;74.70;;;19.70;84.80;;;;;;4403215;32;20174;-56
2022/03/25 08:51:24;;;;;;;86.73;81.50;;;18.70;79.80;;;;;;4404127;32;20199;-55
2022/03/25 08:53:51;;;;;;;77.77;72.77;;;17.10;83.70;;;;;;4406715;32;20327;-56
2022/03/25 08:56:20;;;;;;;80.07;75.00;;;15.60;87.10;;;;;;4404625;32;20166;-58
2022/03/25 08:58:47;;;;;;;81.10;75.97;;;14.40;90.80;;;;;;4394145;32;20162;-55
2022/03/25 09:01:14;;;;;;;83.10;77.97;;;13.90;92.10;;;;;;4397521;32;20218;-57
2022/03/25 09:03:41;;;;;;;81.77;76.60;;;13.40;93.50;;;;;;4404802;32;20351;-58
2022/03/25 09:06:08;;;;;;;78.47;73.47;;;13.10;94.70;;;;;;4409073;32;20171;-58
2022/03/25 09:08:35;;;;;;;79.37;74.43;;;13.00;95.50;;;;;;4430933;32;20604;-57
2022/03/25 09:11:03;;;;;;;77.63;72.80;;;12.80;95.60;;;;;;4428354;32;20144;-57
2022/03/25 09:13:32;;;;;;;86.03;80.93;;;12.90;96.30;;;;;;4430285;32;20583;-56
2022/03/25 09:15:59;;;;;;;90.30;84.70;;;12.90;96.20;;;;;;4428260;32;20649;-58
2022/03/25 09:18:25;;;;;;;83.30;77.87;;;12.90;96.80;;;;;;4428453;32;20639;-57
2022/03/25 09:20:52;;;;;;;87.50;82.30;;;13.00;96.40;;;;;;4429275;32;20223;-57
2022/03/25 09:23:19;;;;;;;83.37;78.30;;;12.90;97.00;;;;;;4429502;32;20158;-57
2022/03/25 09:25:47;;;;;;;83.63;78.37;;;13.00;96.70;;;;;;4427669;32;20173;-56
2022/03/25 09:28:17;;;;;;;84.97;79.53;;;13.10;96.50;;;;;;4426891;32;20198;-57
2022/03/25 09:30:45;;;;;;;83.00;77.70;;;13.00;96.30;;;;;;4428732;32;20143;-54
2022/03/25 09:33:12;;;;;;;83.73;78.60;;;13.10;95.70;;;;;;4430753;32;20210;-58
2022/03/25 09:35:41;;;;;;;78.47;73.97;;;13.00;95.70;;;;;;4426532;32;20553;-55
2022/03/25 09:38:08;;;;;;;78.97;74.33;;;13.10;95.60;;;;;;4424321;32;20209;-56
2022/03/25 09:40:40;;;;;;;79.63;74.57;;;12.90;95.60;;;;;;4437089;32;20201;-58
2022/03/25 09:43:07;;;;;;;77.33;72.57;;;12.90;95.80;;;;;;4436547;32;20170;-56
2022/03/25 09:45:35;;;;;;;85.93;81.00;;;13.00;95.90;;;;;;4436776;32;20143;-58
2022/03/25 09:48:04;;;;;;;87.33;82.17;;;13.00;96.20;;;;;;4436688;32;20169;-56
2022/03/25 09:50:33;;;;;;;79.07;74.23;;;12.90;95.80;;;;;;4437361;32;20514;-58
2022/03/25 09:53:00;;;;;;;74.50;70.17;;;13.10;95.90;;;;;;4436758;32;20501;-58
2022/03/25 09:55:29;;;;;;;72.37;68.07;;;13.20;94.70;;;;;;4437714;32;20479;-58
2022/03/25 09:57:56;;;;;;;69.03;64.80;;;13.20;94.70;;;;;;4436415;32;20163;-58
2022/03/25 10:00:23;;;;;;;73.50;68.93;;;13.30;93.50;;;;;;4436045;32;20167;-58
2022/03/25 10:02:50;;;;;;;66.93;62.80;;;13.40;94.20;;;;;;4436753;32;20170;-57
2022/03/25 10:05:22;;;;;;;66.00;61.87;;;13.50;93.50;;;;;;4437906;32;20171;-55
2022/03/25 10:07:51;;;;;;;61.07;56.97;;;13.40;93.10;;;;;;4420946;32;20172;-56
2022/03/25 10:10:19;;;;;;;63.23;58.93;;;13.30;92.90;;;;;;4430907;32;20189;-58
2022/03/25 10:12:47;;;;;;;65.73;61.43;;;13.30;93.30;;;;;;4421022;32;20165;-59
2022/03/25 10:15:29;;;;;;;;;;;;;;;;;;;;;
2022/03/25 10:17:58;;;;;;;59.03;55.30;;;13.30;93.20;;;;;;4408383;32;20143;-55
2022/03/25 10:20:28;;;;;;;57.60;53.73;;;13.40;92.30;;;;;;4432639;32;20147;-57
2022/03/25 10:23:07;;;;;;;58.60;54.97;;;13.40;92.40;;;;;;4436350;32;20644;-55
2022/03/25 10:25:53;;;;;;;52.60;48.83;;;13.40;92.00;;;;;;4436310;32;20142;-58
2022/03/25 10:28:26;;;;;;;58.80;55.10;;;13.60;91.80;;;;;;4435918;32;20147;-57
2022/03/25 10:30:55;;;;;;;49.93;46.87;;;13.70;91.60;;;;;;4436055;32;20466;-58
2022/03/25 10:33:25;;;;;;;58.10;54.47;;;13.70;90.90;;;;;;4436245;32;20162;-58
2022/03/25 10:36:25;;;;;;;53.27;49.87;;;13.80;91.30;;;;;;4436252;32;20194;-58
2022/03/25 10:38:54;;;;;;;50.53;46.93;;;13.90;90.40;;;;;;4419611;32;20151;-58
2022/03/25 10:41:27;;;;;;;48.50;45.27;;;13.90;90.40;;;;;;4417482;32;20218;-57
2022/03/25 10:43:59;;;;;;;52.40;48.77;;;14.00;90.10;;;;;;4418713;32;20151;-57
2022/03/25 10:46:32;;;;;;;50.27;46.77;;;14.00;90.40;;;;;;4418542;32;20155;-58
2022/03/25 10:49:00;;;;;;;41.07;38.13;;;14.10;89.40;;;;;;4418902;32;20151;-57
2022/03/25 10:51:30;;;;;;;39.13;36.53;;;14.20;84.70;;;;;;4417708;32;20231;-58
2022/03/25 10:53:58;;;;;;;39.40;36.77;;;14.20;84.10;;;;;;4420313;32;20157;-58
2022/03/25 10:56:26;;;;;;;34.27;31.77;;;14.30;83.40;;;;;;4419011;32;20156;-58
2022/03/25 10:59:02;;;;;;;32.17;29.73;;;14.40;81.80;;;;;;4420532;32;20200;-58
2022/03/25 11:01:29;;;;;;;35.20;32.33;;;14.50;80.20;;;;;;4433905;32;20558;-57
2022/03/25 11:03:57;;;;;;;41.37;38.40;;;14.70;81.70;;;;;;4436633;32;20146;-58
2022/03/25 11:06:25;;;;;;;35.00;32.53;;;14.80;82.70;;;;;;4435991;32;20139;-58
2022/03/25 11:08:55;;;;;;;38.43;35.67;;;14.90;80.80;;;;;;4437814;32;20163;-58
2022/03/25 11:11:22;;;;;;;40.53;37.57;;;14.90;81.60;;;;;;4434620;32;20170;-58
2022/03/25 11:13:49;;;;;;;49.47;45.87;;;14.50;81.00;;;;;;4435777;32;20146;-57
2022/03/25 11:16:17;;;;;;;39.67;36.63;;;14.60;83.50;;;;;;4435949;32;20190;-57
2022/03/25 11:18:45;;;;;;;40.27;37.43;;;14.70;81.50;;;;;;4435729;32;20231;-59
2022/03/25 11:21:16;;;;;;;36.43;33.63;;;14.80;80.80;;;;;;4434950;32;20154;-58
2022/03/25 11:23:48;;;;;;;36.73;34.03;;;14.70;80.60;;;;;;4424800;32;20189;-57
2022/03/25 11:26:23;;;;;;;39.17;36.30;;;14.70;79.90;;;;;;4435079;32;20214;-58
2022/03/25 11:28:54;;;;;;;37.83;35.03;;;14.80;81.00;;;;;;4433874;32;20165;-58
2022/03/25 11:31:24;;;;;;;40.13;37.23;;;14.90;80.70;;;;;;4435775;32;20170;-57
2022/03/25 11:34:11;;;;;;;43.87;40.83;;;14.90;80.40;;;;;;4435632;32;20196;-58
2022/03/25 11:36:40;;;;;;;46.50;42.93;;;14.90;81.70;;;;;;4435564;32;20207;-58
2022/03/25 11:39:25;;;;;;;46.50;43.13;;;15.00;81.70;;;;;;4427897;32;20249;-58
2022/03/25 11:42:06;;;;;;;41.50;38.33;;;15.10;81.50;;;;;;4426009;32;20155;-58
2022/03/25 11:44:34;;;;;;;44.60;41.23;;;15.20;80.20;;;;;;4427927;32;20189;-57
2022/03/25 11:47:18;;;;;;;53.33;49.73;;;15.30;80.20;;;;;;4428766;32;20610;-56
2022/03/25 11:49:45;;;;;;;45.67;42.37;;;15.00;80.50;;;;;;4430045;32;20212;-57
2022/03/25 11:52:30;;;;;;;43.63;40.67;;;15.10;81.00;;;;;;4429048;32;20155;-57
2022/03/25 11:54:58;;;;;;;45.90;42.50;;;15.30;79.40;;;;;;4427562;32;20228;-58
2022/03/25 11:57:28;;;;;;;45.63;42.43;;;15.20;79.90;;;;;;4427939;32;20257;-58
2022/03/25 11:59:57;;;;;;;50.63;47.20;;;15.30;80.70;;;;;;4424565;32;20599;-58
2022/03/25 12:02:30;;;;;;;47.47;44.33;;;15.40;80.30;;;;;;4428398;32;20197;-58
2022/03/25 12:04:58;;;;;;;53.07;49.17;;;15.50;80.40;;;;;;4425643;32;20154;-58
2022/03/25 12:07:25;;;;;;;48.23;44.63;;;15.30;80.50;;;;;;4422588;32;20225;-56
2022/03/25 12:09:51;;;;;;;46.47;43.40;;;15.40;78.80;;;;;;4424995;32;20218;-58
2022/03/25 12:12:19;;;;;;;44.93;41.77;;;15.40;77.90;;;;;;4435222;32;20218;-57
2022/03/25 12:15:14;;;;;;;48.43;44.97;;;15.50;78.20;;;;;;4438206;32;20177;-58
2022/03/25 12:17:41;;;;;;;46.90;43.57;;;15.50;78.70;;;;;;4431131;32;20148;-58
2022/03/25 12:20:09;;;;;;;47.17;43.63;;;15.60;79.10;;;;;;4423919;32;20163;-57
2022/03/25 12:22:40;;;;;;;53.00;49.30;;;15.60;79.10;;;;;;4427142;32;20225;-57
2022/03/25 12:25:22;;;;;;;54.30;50.57;;;15.70;79.60;;;;;;4432380;32;20257;-57
2022/03/25 12:27:52;;;;;;;56.03;52.37;;;15.70;79.10;;;;;;4437628;32;20163;-57
2022/03/25 12:30:22;;;;;;;52.33;48.83;;;15.70;79.90;;;;;;4438540;32;20159;-57
2022/03/25 12:32:56;;;;;;;54.57;51.10;;;15.80;79.00;;;;;;4437882;32;20142;-58
2022/03/25 12:35:29;;;;;;;54.47;49.97;;;15.80;78.80;;;;;;4438896;32;20150;-56
2022/03/25 12:38:22;;;;;;;52.07;48.50;;;15.60;79.50;;;;;;4425316;32;20226;-58
2022/03/25 12:40:51;;;;;;;55.07;51.57;;;15.60;79.60;;;;;;4430291;32;20185;-58
2022/03/25 12:43:30;;;;;;;53.47;49.90;;;15.70;79.50;;;;;;4431446;32;20151;-58
2022/03/25 12:45:58;;;;;;;55.70;51.63;;;15.70;79.20;;;;;;4436014;32;20451;-58
2022/03/25 12:48:25;;;;;;;68.30;63.97;;;15.70;80.10;;;;;;4428998;32;20143;-57